sensor_id;sensor_type;location;lat;lon;timestamp;temperature;humidity
1347;DHT22;667;48.796;9.480;2023-07-08T00:02:12;21.20;54.40
1347;DHT22;667;48.796;9.480;2023-07-08T00:04:39;21.30;54.40
1347;DHT22;667;48.796;9.480;2023-07-08T00:07:05;21.30;54.40
1347;DHT22;667;48.796;9.480;2023-07-08T00:09:34;21.20;54.40
1347;DHT22;667;48.796;9.480;2023-07-08T00:12:00;21.20;54.50
1347;DHT22;667;48.796;9.480;2023-07-08T00:14:25;21.20;54.60
1347;DHT22;667;48.796;9.480;2023-07-08T00:16:51;21.20;54.60
1347;DHT22;667;48.796;9.480;2023-07-08T00:19:17;21.20;54.80
1347;DHT22;667;48.796;9.480;2023-07-08T00:21:45;21.20;54.60
1347;DHT22;667;48.796;9.480;2023-07-08T00:24:11;21.10;54.20
1347;DHT22;667;48.796;9.480;2023-07-08T00:26:37;21.10;54.10
1347;DHT22;667;48.796;9.480;2023-07-08T00:29:05;21.10;54.20
1347;DHT22;667;48.796;9.480;2023-07-08T00:31:33;21.10;54.40
1347;DHT22;667;48.796;9.480;2023-07-08T00:33:59;21.10;54.60
1347;DHT22;667;48.796;9.480;2023-07-08T00:36:26;21.00;54.90
1347;DHT22;667;48.796;9.480;2023-07-08T00:38:52;21.00;54.80
1347;DHT22;667;48.796;9.480;2023-07-08T00:41:37;21.00;54.60
1347;DHT22;667;48.796;9.480;2023-07-08T00:44:10;20.90;54.40
1347;DHT22;667;48.796;9.480;2023-07-08T00:51:48;20.90;54.60
1347;DHT22;667;48.796;9.480;2023-07-08T00:54:15;20.80;54.80
1347;DHT22;667;48.796;9.480;2023-07-08T00:56:48;20.80;55.60
1347;DHT22;667;48.796;9.480;2023-07-08T00:59:37;20.70;55.30
1347;DHT22;667;48.796;9.480;2023-07-08T01:02:07;20.70;55.50
1347;DHT22;667;48.796;9.480;2023-07-08T01:04:43;20.60;55.10
1347;DHT22;667;48.796;9.480;2023-07-08T01:07:11;20.60;55.30
1347;DHT22;667;48.796;9.480;2023-07-08T01:09:41;20.60;55.00
1347;DHT22;667;48.796;9.480;2023-07-08T01:12:12;20.60;55.10
1347;DHT22;667;48.796;9.480;2023-07-08T01:14:39;20.60;55.10
1347;DHT22;667;48.796;9.480;2023-07-08T01:17:08;20.50;55.20
1347;DHT22;667;48.796;9.480;2023-07-08T01:19:40;20.50;55.40
1347;DHT22;667;48.796;9.480;2023-07-08T01:22:06;20.50;55.30
1347;DHT22;667;48.796;9.480;2023-07-08T01:24:35;20.50;55.40
1347;DHT22;667;48.796;9.480;2023-07-08T01:27:04;20.40;55.50
1347;DHT22;667;48.796;9.480;2023-07-08T01:29:30;20.40;55.50
1347;DHT22;667;48.796;9.480;2023-07-08T01:31:57;20.40;55.40
1347;DHT22;667;48.796;9.480;2023-07-08T01:34:23;20.40;55.10
1347;DHT22;667;48.796;9.480;2023-07-08T01:36:52;20.40;54.90
1347;DHT22;667;48.796;9.480;2023-07-08T01:39:20;20.40;54.90
1347;DHT22;667;48.796;9.480;2023-07-08T01:41:46;20.40;55.10
1347;DHT22;667;48.796;9.480;2023-07-08T01:44:31;20.40;55.00
1347;DHT22;667;48.796;9.480;2023-07-08T01:47:07;20.30;55.10
1347;DHT22;667;48.796;9.480;2023-07-08T01:49:36;20.30;55.30
1347;DHT22;667;48.796;9.480;2023-07-08T01:52:03;20.30;55.10
1347;DHT22;667;48.796;9.480;2023-07-08T01:54:28;20.20;54.30
1347;DHT22;667;48.796;9.480;2023-07-08T01:56:56;20.20;54.30
1347;DHT22;667;48.796;9.480;2023-07-08T01:59:22;20.20;54.60
1347;DHT22;667;48.796;9.480;2023-07-08T02:01:47;20.20;54.90
1347;DHT22;667;48.796;9.480;2023-07-08T02:04:15;20.20;55.20
1347;DHT22;667;48.796;9.480;2023-07-08T02:06:41;20.20;55.40
1347;DHT22;667;48.796;9.480;2023-07-08T02:09:07;20.20;55.60
1347;DHT22;667;48.796;9.480;2023-07-08T02:11:33;20.20;55.80
1347;DHT22;667;48.796;9.480;2023-07-08T02:13:58;20.10;55.70
1347;DHT22;667;48.796;9.480;2023-07-08T02:16:26;20.10;55.50
1347;DHT22;667;48.796;9.480;2023-07-08T02:18:51;20.10;55.40
1347;DHT22;667;48.796;9.480;2023-07-08T02:21:17;20.00;55.20
1347;DHT22;667;48.796;9.480;2023-07-08T02:23:45;20.00;55.40
1347;DHT22;667;48.796;9.480;2023-07-08T02:26:11;20.00;55.00
1347;DHT22;667;48.796;9.480;2023-07-08T02:28:37;20.00;55.10
1347;DHT22;667;48.796;9.480;2023-07-08T02:31:03;20.00;55.30
1347;DHT22;667;48.796;9.480;2023-07-08T02:33:28;20.00;55.30
1347;DHT22;667;48.796;9.480;2023-07-08T02:35:58;20.00;55.20
1347;DHT22;667;48.796;9.480;2023-07-08T02:38:25;20.00;55.30
1347;DHT22;667;48.796;9.480;2023-07-08T02:40:50;20.00;55.70
1347;DHT22;667;48.796;9.480;2023-07-08T02:43:16;20.00;56.30
1347;DHT22;667;48.796;9.480;2023-07-08T02:45:41;20.00;55.70
1347;DHT22;667;48.796;9.480;2023-07-08T02:48:07;20.00;55.40
1347;DHT22;667;48.796;9.480;2023-07-08T02:50:32;20.00;55.50
1347;DHT22;667;48.796;9.480;2023-07-08T02:52:58;20.00;55.80
1347;DHT22;667;48.796;9.480;2023-07-08T02:55:24;19.90;56.00
1347;DHT22;667;48.796;9.480;2023-07-08T02:57:49;19.90;56.30
1347;DHT22;667;48.796;9.480;2023-07-08T03:00:15;19.90;56.30
1347;DHT22;667;48.796;9.480;2023-07-08T03:02:41;19.90;56.30
1347;DHT22;667;48.796;9.480;2023-07-08T03:05:06;19.80;56.20
1347;DHT22;667;48.796;9.480;2023-07-08T03:07:33;19.80;56.40
1347;DHT22;667;48.796;9.480;2023-07-08T03:09:58;19.80;56.50
1347;DHT22;667;48.796;9.480;2023-07-08T03:12:24;19.80;56.70
1347;DHT22;667;48.796;9.480;2023-07-08T03:14:50;19.80;56.80
1347;DHT22;667;48.796;9.480;2023-07-08T03:17:15;19.70;56.90
1347;DHT22;667;48.796;9.480;2023-07-08T03:19:43;19.70;56.90
1347;DHT22;667;48.796;9.480;2023-07-08T03:22:08;19.70;57.00
1347;DHT22;667;48.796;9.480;2023-07-08T03:24:34;19.70;57.20
1347;DHT22;667;48.796;9.480;2023-07-08T03:27:00;19.70;56.90
1347;DHT22;667;48.796;9.480;2023-07-08T03:29:30;19.70;57.10
1347;DHT22;667;48.796;9.480;2023-07-08T03:31:56;19.60;57.10
1347;DHT22;667;48.796;9.480;2023-07-08T03:34:21;19.60;57.20
1347;DHT22;667;48.796;9.480;2023-07-08T03:36:50;19.60;57.20
1347;DHT22;667;48.796;9.480;2023-07-08T03:39:18;19.60;57.40
1347;DHT22;667;48.796;9.480;2023-07-08T03:41:45;19.60;57.50
1347;DHT22;667;48.796;9.480;2023-07-08T03:44:11;19.50;57.70
1347;DHT22;667;48.796;9.480;2023-07-08T03:46:37;19.50;57.90
1347;DHT22;667;48.796;9.480;2023-07-08T03:49:04;19.50;58.60
1347;DHT22;667;48.796;9.480;2023-07-08T03:51:32;19.50;58.10
1347;DHT22;667;48.796;9.480;2023-07-08T03:53:58;19.50;58.10
1347;DHT22;667;48.796;9.480;2023-07-08T03:56:25;19.40;58.00
1347;DHT22;667;48.796;9.480;2023-07-08T03:58:50;19.40;57.80
1347;DHT22;667;48.796;9.480;2023-07-08T04:01:18;19.40;58.00
1347;DHT22;667;48.796;9.480;2023-07-08T04:03:46;19.40;58.80
1347;DHT22;667;48.796;9.480;2023-07-08T04:06:12;19.40;58.30
1347;DHT22;667;48.796;9.480;2023-07-08T04:08:37;19.40;58.30
1347;DHT22;667;48.796;9.480;2023-07-08T04:11:03;19.40;58.10
1347;DHT22;667;48.796;9.480;2023-07-08T04:13:29;19.40;58.20
1347;DHT22;667;48.796;9.480;2023-07-08T04:15:57;19.40;58.20
1347;DHT22;667;48.796;9.480;2023-07-08T04:18:24;19.40;58.20
1347;DHT22;667;48.796;9.480;2023-07-08T04:20:49;19.40;58.60
1347;DHT22;667;48.796;9.480;2023-07-08T04:23:21;19.40;58.80
1347;DHT22;667;48.796;9.480;2023-07-08T04:25:49;19.40;58.70
1347;DHT22;667;48.796;9.480;2023-07-08T04:28:15;19.40;58.70
1347;DHT22;667;48.796;9.480;2023-07-08T04:30:41;19.40;58.70
1347;DHT22;667;48.796;9.480;2023-07-08T04:33:12;19.50;58.60
1347;DHT22;667;48.796;9.480;2023-07-08T04:35:38;19.50;58.80
1347;DHT22;667;48.796;9.480;2023-07-08T04:38:22;19.50;57.70
1347;DHT22;667;48.796;9.480;2023-07-08T04:40:49;19.50;57.10
1347;DHT22;667;48.796;9.480;2023-07-08T04:43:14;19.60;57.30
1347;DHT22;667;48.796;9.480;2023-07-08T04:45:42;19.60;57.70
1347;DHT22;667;48.796;9.480;2023-07-08T04:48:16;19.60;58.20
1347;DHT22;667;48.796;9.480;2023-07-08T04:50:47;19.70;58.50
1347;DHT22;667;48.796;9.480;2023-07-08T04:53:13;19.70;58.50
1347;DHT22;667;48.796;9.480;2023-07-08T04:55:46;19.80;58.60
1347;DHT22;667;48.796;9.480;2023-07-08T04:58:13;19.80;58.50
1347;DHT22;667;48.796;9.480;2023-07-08T05:00:38;19.80;58.60
1347;DHT22;667;48.796;9.480;2023-07-08T05:03:04;19.90;58.80
1347;DHT22;667;48.796;9.480;2023-07-08T05:05:30;19.90;59.10
1347;DHT22;667;48.796;9.480;2023-07-08T05:07:55;20.00;59.20
1347;DHT22;667;48.796;9.480;2023-07-08T05:10:21;20.00;59.00
1347;DHT22;667;48.796;9.480;2023-07-08T05:12:47;20.10;59.20
1347;DHT22;667;48.796;9.480;2023-07-08T05:15:14;20.10;59.30
1347;DHT22;667;48.796;9.480;2023-07-08T05:17:40;20.20;59.40
1347;DHT22;667;48.796;9.480;2023-07-08T05:20:08;20.30;59.30
1347;DHT22;667;48.796;9.480;2023-07-08T05:22:34;20.30;59.30
1347;DHT22;667;48.796;9.480;2023-07-08T05:25:00;20.40;59.60
1347;DHT22;667;48.796;9.480;2023-07-08T05:27:26;20.50;59.30
1347;DHT22;667;48.796;9.480;2023-07-08T05:29:52;20.50;58.30
1347;DHT22;667;48.796;9.480;2023-07-08T05:32:18;20.60;58.10
1347;DHT22;667;48.796;9.480;2023-07-08T05:34:44;20.70;58.50
1347;DHT22;667;48.796;9.480;2023-07-08T05:37:11;20.70;57.20
1347;DHT22;667;48.796;9.480;2023-07-08T05:39:36;20.80;56.80
1347;DHT22;667;48.796;9.480;2023-07-08T05:42:02;20.90;56.90
1347;DHT22;667;48.796;9.480;2023-07-08T05:44:28;21.00;57.40
1347;DHT22;667;48.796;9.480;2023-07-08T05:46:54;21.00;56.80
1347;DHT22;667;48.796;9.480;2023-07-08T05:49:19;21.20;56.80
1347;DHT22;667;48.796;9.480;2023-07-08T05:51:45;21.30;56.90
1347;DHT22;667;48.796;9.480;2023-07-08T05:54:10;21.40;56.80
1347;DHT22;667;48.796;9.480;2023-07-08T05:56:36;21.50;56.40
1347;DHT22;667;48.796;9.480;2023-07-08T05:59:03;21.60;56.00
1347;DHT22;667;48.796;9.480;2023-07-08T06:01:29;21.70;55.60
1347;DHT22;667;48.796;9.480;2023-07-08T06:03:55;21.80;54.70
1347;DHT22;667;48.796;9.480;2023-07-08T06:06:24;22.00;54.50
1347;DHT22;667;48.796;9.480;2023-07-08T06:08:49;22.10;54.10
1347;DHT22;667;48.796;9.480;2023-07-08T06:11:15;22.20;53.30
1347;DHT22;667;48.796;9.480;2023-07-08T06:13:41;22.30;53.50
1347;DHT22;667;48.796;9.480;2023-07-08T06:16:06;22.40;53.90
1347;DHT22;667;48.796;9.480;2023-07-08T06:18:32;22.50;54.30
1347;DHT22;667;48.796;9.480;2023-07-08T06:20:58;22.60;54.10
1347;DHT22;667;48.796;9.480;2023-07-08T06:23:24;22.70;53.50
1347;DHT22;667;48.796;9.480;2023-07-08T06:25:50;22.70;53.30
1347;DHT22;667;48.796;9.480;2023-07-08T06:28:16;22.80;54.00
1347;DHT22;667;48.796;9.480;2023-07-08T06:30:42;22.90;54.80
1347;DHT22;667;48.796;9.480;2023-07-08T06:33:08;23.00;55.10
1347;DHT22;667;48.796;9.480;2023-07-08T06:35:34;23.10;54.70
1347;DHT22;667;48.796;9.480;2023-07-08T06:37:59;23.20;54.40
1347;DHT22;667;48.796;9.480;2023-07-08T06:40:25;23.20;54.10
1347;DHT22;667;48.796;9.480;2023-07-08T06:42:50;23.30;53.70
1347;DHT22;667;48.796;9.480;2023-07-08T06:45:16;23.40;53.60
1347;DHT22;667;48.796;9.480;2023-07-08T06:47:42;23.50;53.20
1347;DHT22;667;48.796;9.480;2023-07-08T06:50:08;23.50;53.00
1347;DHT22;667;48.796;9.480;2023-07-08T06:52:33;23.60;53.40
1347;DHT22;667;48.796;9.480;2023-07-08T06:55:01;23.60;53.10
1347;DHT22;667;48.796;9.480;2023-07-08T06:57:27;23.70;52.20
1347;DHT22;667;48.796;9.480;2023-07-08T06:59:53;23.70;51.90
1347;DHT22;667;48.796;9.480;2023-07-08T07:02:19;23.80;52.80
1347;DHT22;667;48.796;9.480;2023-07-08T07:04:45;23.80;53.50
1347;DHT22;667;48.796;9.480;2023-07-08T07:07:11;23.80;53.90
1347;DHT22;667;48.796;9.480;2023-07-08T07:09:37;23.80;54.80
1347;DHT22;667;48.796;9.480;2023-07-08T07:12:04;23.90;54.60
1347;DHT22;667;48.796;9.480;2023-07-08T07:14:30;24.00;53.30
1347;DHT22;667;48.796;9.480;2023-07-08T07:16:56;24.10;52.90
1347;DHT22;667;48.796;9.480;2023-07-08T07:19:21;24.30;52.80
1347;DHT22;667;48.796;9.480;2023-07-08T07:21:47;24.30;51.70
1347;DHT22;667;48.796;9.480;2023-07-08T07:24:13;24.40;51.70
1347;DHT22;667;48.796;9.480;2023-07-08T07:26:39;24.40;51.40
1347;DHT22;667;48.796;9.480;2023-07-08T07:29:05;24.50;51.40
1347;DHT22;667;48.796;9.480;2023-07-08T07:31:30;24.60;51.50
1347;DHT22;667;48.796;9.480;2023-07-08T07:33:58;24.60;51.70
1347;DHT22;667;48.796;9.480;2023-07-08T07:36:24;24.70;51.90
1347;DHT22;667;48.796;9.480;2023-07-08T07:38:49;24.70;51.80
1347;DHT22;667;48.796;9.480;2023-07-08T07:41:16;24.80;51.90
1347;DHT22;667;48.796;9.480;2023-07-08T07:43:41;24.80;51.70
1347;DHT22;667;48.796;9.480;2023-07-08T07:46:07;24.90;51.00
1347;DHT22;667;48.796;9.480;2023-07-08T07:48:33;24.90;50.60
1347;DHT22;667;48.796;9.480;2023-07-08T07:50:59;25.00;50.30
1347;DHT22;667;48.796;9.480;2023-07-08T07:53:25;25.00;50.40
1347;DHT22;667;48.796;9.480;2023-07-08T07:56:02;25.10;49.70
1347;DHT22;667;48.796;9.480;2023-07-08T07:58:29;25.10;49.80
1347;DHT22;667;48.796;9.480;2023-07-08T08:00:55;25.10;50.20
1347;DHT22;667;48.796;9.480;2023-07-08T08:03:21;25.20;50.40
1347;DHT22;667;48.796;9.480;2023-07-08T08:05:47;25.20;50.30
1347;DHT22;667;48.796;9.480;2023-07-08T08:08:13;25.20;50.60
1347;DHT22;667;48.796;9.480;2023-07-08T08:10:39;25.20;50.80
1347;DHT22;667;48.796;9.480;2023-07-08T08:13:04;25.30;51.20
1347;DHT22;667;48.796;9.480;2023-07-08T08:15:30;25.30;51.00
1347;DHT22;667;48.796;9.480;2023-07-08T08:17:55;25.40;51.30
1347;DHT22;667;48.796;9.480;2023-07-08T08:20:23;25.40;51.20
1347;DHT22;667;48.796;9.480;2023-07-08T08:22:50;25.40;51.20
1347;DHT22;667;48.796;9.480;2023-07-08T08:25:17;25.50;51.40
1347;DHT22;667;48.796;9.480;2023-07-08T08:27:43;25.70;51.30
1347;DHT22;667;48.796;9.480;2023-07-08T08:30:09;25.80;51.00
1347;DHT22;667;48.796;9.480;2023-07-08T08:32:35;26.00;50.60
1347;DHT22;667;48.796;9.480;2023-07-08T08:35:01;26.10;49.90
1347;DHT22;667;48.796;9.480;2023-07-08T08:37:27;26.20;49.50
1347;DHT22;667;48.796;9.480;2023-07-08T08:39:52;26.30;48.90
1347;DHT22;667;48.796;9.480;2023-07-08T08:42:40;26.40;48.80
1347;DHT22;667;48.796;9.480;2023-07-08T08:45:07;26.50;48.60
1347;DHT22;667;48.796;9.480;2023-07-08T08:47:44;26.70;48.30
1347;DHT22;667;48.796;9.480;2023-07-08T08:53:05;27.00;48.10
1347;DHT22;667;48.796;9.480;2023-07-08T08:55:31;27.10;47.90
1347;DHT22;667;48.796;9.480;2023-07-08T08:58:14;27.30;46.70
1347;DHT22;667;48.796;9.480;2023-07-08T09:00:54;27.40;46.10
1347;DHT22;667;48.796;9.480;2023-07-08T09:03:57;27.60;45.40
1347;DHT22;667;48.796;9.480;2023-07-08T09:06:25;27.60;44.00
1347;DHT22;667;48.796;9.480;2023-07-08T09:08:52;27.70;43.90
1347;DHT22;667;48.796;9.480;2023-07-08T09:14:26;28.00;44.90
1347;DHT22;667;48.796;9.480;2023-07-08T09:17:16;28.20;44.40
1347;DHT22;667;48.796;9.480;2023-07-08T09:19:45;28.40;44.30
1347;DHT22;667;48.796;9.480;2023-07-08T09:22:28;28.60;43.90
1347;DHT22;667;48.796;9.480;2023-07-08T09:27:38;28.90;43.70
1347;DHT22;667;48.796;9.480;2023-07-08T09:30:04;29.00;43.30
1347;DHT22;667;48.796;9.480;2023-07-08T09:32:29;29.20;43.20
1347;DHT22;667;48.796;9.480;2023-07-08T09:35:05;29.40;42.80
1347;DHT22;667;48.796;9.480;2023-07-08T09:37:36;29.50;41.90
1347;DHT22;667;48.796;9.480;2023-07-08T09:40:22;29.50;41.70
1347;DHT22;667;48.796;9.480;2023-07-08T09:42:54;29.50;41.60
1347;DHT22;667;48.796;9.480;2023-07-08T09:45:23;29.50;41.30
1347;DHT22;667;48.796;9.480;2023-07-08T09:47:53;29.50;41.70
1347;DHT22;667;48.796;9.480;2023-07-08T09:52:51;29.70;41.70
1347;DHT22;667;48.796;9.480;2023-07-08T09:55:17;29.70;41.70
1347;DHT22;667;48.796;9.480;2023-07-08T09:57:44;29.80;42.00
1347;DHT22;667;48.796;9.480;2023-07-08T10:00:13;29.80;42.10
1347;DHT22;667;48.796;9.480;2023-07-08T10:02:46;29.80;42.00
1347;DHT22;667;48.796;9.480;2023-07-08T10:05:30;29.80;42.70
1347;DHT22;667;48.796;9.480;2023-07-08T10:07:57;29.80;42.30
1347;DHT22;667;48.796;9.480;2023-07-08T10:10:33;29.70;42.50
1347;DHT22;667;48.796;9.480;2023-07-08T10:13:02;29.70;42.80
1347;DHT22;667;48.796;9.480;2023-07-08T10:15:33;29.70;42.70
1347;DHT22;667;48.796;9.480;2023-07-08T10:18:01;29.70;42.90
1347;DHT22;667;48.796;9.480;2023-07-08T10:26:00;29.60;42.30
1347;DHT22;667;48.796;9.480;2023-07-08T10:34:55;29.40;42.20
1347;DHT22;667;48.796;9.480;2023-07-08T10:46:10;29.20;40.70
1347;DHT22;667;48.796;9.480;2023-07-08T10:56:55;29.40;43.70
1347;DHT22;667;48.796;9.480;2023-07-08T11:05:19;30.00;41.20
1347;DHT22;667;48.796;9.480;2023-07-08T11:07:55;30.20;40.80
1347;DHT22;667;48.796;9.480;2023-07-08T11:10:28;30.30;39.80
1347;DHT22;667;48.796;9.480;2023-07-08T11:13:00;30.50;39.40
1347;DHT22;667;48.796;9.480;2023-07-08T11:15:40;30.60;38.20
1347;DHT22;667;48.796;9.480;2023-07-08T11:18:16;30.60;38.10
1347;DHT22;667;48.796;9.480;2023-07-08T11:20:50;30.70;38.40
1347;DHT22;667;48.796;9.480;2023-07-08T11:25:49;31.00;37.20
1347;DHT22;667;48.796;9.480;2023-07-08T11:28:18;31.00;36.60
1347;DHT22;667;48.796;9.480;2023-07-08T11:30:47;31.10;36.90
1347;DHT22;667;48.796;9.480;2023-07-08T11:33:17;31.10;37.70
1347;DHT22;667;48.796;9.480;2023-07-08T11:35:47;31.20;37.30
1347;DHT22;667;48.796;9.480;2023-07-08T11:38:16;31.20;37.40
1347;DHT22;667;48.796;9.480;2023-07-08T11:40:59;31.30;37.10
1347;DHT22;667;48.796;9.480;2023-07-08T11:43:28;31.40;36.60
1347;DHT22;667;48.796;9.480;2023-07-08T11:46:06;31.40;37.30
1347;DHT22;667;48.796;9.480;2023-07-08T11:48:44;31.50;37.40
1347;DHT22;667;48.796;9.480;2023-07-08T11:51:18;31.60;37.20
1347;DHT22;667;48.796;9.480;2023-07-08T11:53:50;31.60;35.70
1347;DHT22;667;48.796;9.480;2023-07-08T12:01:23;31.80;36.00
1347;DHT22;667;48.796;9.480;2023-07-08T12:03:55;31.80;36.10
1347;DHT22;667;48.796;9.480;2023-07-08T12:08:56;31.90;35.90
1347;DHT22;667;48.796;9.480;2023-07-08T12:11:34;31.90;35.20
1347;DHT22;667;48.796;9.480;2023-07-08T12:14:03;31.90;35.80
1347;DHT22;667;48.796;9.480;2023-07-08T12:16:30;32.00;35.90
1347;DHT22;667;48.796;9.480;2023-07-08T12:18:59;32.00;35.30
1347;DHT22;667;48.796;9.480;2023-07-08T12:21:26;32.00;35.50
1347;DHT22;667;48.796;9.480;2023-07-08T12:23:53;32.10;35.80
1347;DHT22;667;48.796;9.480;2023-07-08T12:26:19;32.10;35.10
1347;DHT22;667;48.796;9.480;2023-07-08T12:28:45;32.20;35.30
1347;DHT22;667;48.796;9.480;2023-07-08T12:31:18;32.20;34.60
1347;DHT22;667;48.796;9.480;2023-07-08T12:33:45;32.20;34.60
1347;DHT22;667;48.796;9.480;2023-07-08T12:36:18;32.30;35.30
1347;DHT22;667;48.796;9.480;2023-07-08T12:38:45;32.40;34.50
1347;DHT22;667;48.796;9.480;2023-07-08T12:43:41;32.30;33.70
1347;DHT22;667;48.796;9.480;2023-07-08T12:46:09;32.40;34.20
1347;DHT22;667;48.796;9.480;2023-07-08T12:48:36;32.50;33.50
1347;DHT22;667;48.796;9.480;2023-07-08T12:51:05;32.40;33.80
1347;DHT22;667;48.796;9.480;2023-07-08T12:53:30;32.60;34.60
1347;DHT22;667;48.796;9.480;2023-07-08T12:55:59;32.60;34.80
1347;DHT22;667;48.796;9.480;2023-07-08T12:58:28;32.60;34.60
1347;DHT22;667;48.796;9.480;2023-07-08T13:00:55;32.70;35.00
1347;DHT22;667;48.796;9.480;2023-07-08T13:03:28;32.80;34.20
1347;DHT22;667;48.796;9.480;2023-07-08T13:05:55;32.80;33.90
1347;DHT22;667;48.796;9.480;2023-07-08T13:08:24;32.80;33.80
1347;DHT22;667;48.796;9.480;2023-07-08T13:10:54;32.80;34.00
1347;DHT22;667;48.796;9.480;2023-07-08T13:13:28;32.80;33.10
1347;DHT22;667;48.796;9.480;2023-07-08T13:15:54;32.80;33.60
1347;DHT22;667;48.796;9.480;2023-07-08T13:18:35;32.80;33.80
1347;DHT22;667;48.796;9.480;2023-07-08T13:21:02;32.80;34.10
1347;DHT22;667;48.796;9.480;2023-07-08T13:23:28;32.90;34.10
1347;DHT22;667;48.796;9.480;2023-07-08T13:25:55;32.90;33.90
1347;DHT22;667;48.796;9.480;2023-07-08T13:28:30;32.90;33.90
1347;DHT22;667;48.796;9.480;2023-07-08T13:31:02;33.00;32.80
1347;DHT22;667;48.796;9.480;2023-07-08T13:33:33;33.00;32.50
1347;DHT22;667;48.796;9.480;2023-07-08T13:36:02;32.90;32.80
1347;DHT22;667;48.796;9.480;2023-07-08T13:38:33;33.00;33.00
1347;DHT22;667;48.796;9.480;2023-07-08T13:41:02;33.00;33.40
1347;DHT22;667;48.796;9.480;2023-07-08T13:43:30;33.00;32.90
1347;DHT22;667;48.796;9.480;2023-07-08T13:45:57;32.90;33.30
1347;DHT22;667;48.796;9.480;2023-07-08T13:48:43;33.20;33.50
1347;DHT22;667;48.796;9.480;2023-07-08T13:51:10;32.90;32.70
1347;DHT22;667;48.796;9.480;2023-07-08T13:56:13;32.90;33.20
1347;DHT22;667;48.796;9.480;2023-07-08T13:58:44;33.00;32.10
1347;DHT22;667;48.796;9.480;2023-07-08T14:01:19;32.90;32.20
1347;DHT22;667;48.796;9.480;2023-07-08T14:03:45;32.90;31.90
1347;DHT22;667;48.796;9.480;2023-07-08T14:06:14;32.90;32.10
1347;DHT22;667;48.796;9.480;2023-07-08T14:08:40;32.90;32.40
1347;DHT22;667;48.796;9.480;2023-07-08T14:11:06;32.90;32.40
1347;DHT22;667;48.796;9.480;2023-07-08T14:13:32;32.90;32.40
1347;DHT22;667;48.796;9.480;2023-07-08T14:15:58;32.90;32.20
1347;DHT22;667;48.796;9.480;2023-07-08T14:18:24;32.90;32.30
1347;DHT22;667;48.796;9.480;2023-07-08T14:20:49;32.90;32.70
1347;DHT22;667;48.796;9.480;2023-07-08T14:23:15;33.00;33.50
1347;DHT22;667;48.796;9.480;2023-07-08T14:25:40;33.00;33.30
1347;DHT22;667;48.796;9.480;2023-07-08T14:28:06;33.10;32.80
1347;DHT22;667;48.796;9.480;2023-07-08T14:30:33;33.10;32.20
1347;DHT22;667;48.796;9.480;2023-07-08T14:33:00;33.10;32.10
1347;DHT22;667;48.796;9.480;2023-07-08T14:35:28;33.00;32.90
1347;DHT22;667;48.796;9.480;2023-07-08T14:37:54;33.10;33.30
1347;DHT22;667;48.796;9.480;2023-07-08T14:40:33;33.10;33.60
1347;DHT22;667;48.796;9.480;2023-07-08T14:43:11;33.10;33.40
1347;DHT22;667;48.796;9.480;2023-07-08T14:45:41;33.10;33.10
1347;DHT22;667;48.796;9.480;2023-07-08T14:48:10;33.10;33.10
1347;DHT22;667;48.796;9.480;2023-07-08T14:50:36;33.00;33.70
1347;DHT22;667;48.796;9.480;2023-07-08T14:53:02;32.90;33.70
1347;DHT22;667;48.796;9.480;2023-07-08T14:55:28;32.80;33.50
1347;DHT22;667;48.796;9.480;2023-07-08T14:57:54;32.70;33.40
1347;DHT22;667;48.796;9.480;2023-07-08T15:00:22;32.60;33.40
1347;DHT22;667;48.796;9.480;2023-07-08T15:02:48;32.50;33.40
1347;DHT22;667;48.796;9.480;2023-07-08T15:07:40;32.30;33.70
1347;DHT22;667;48.796;9.480;2023-07-08T15:10:07;32.30;34.00
1347;DHT22;667;48.796;9.480;2023-07-08T15:12:33;32.40;34.10
1347;DHT22;667;48.796;9.480;2023-07-08T15:14:58;32.40;33.90
1347;DHT22;667;48.796;9.480;2023-07-08T15:17:24;32.50;33.80
1347;DHT22;667;48.796;9.480;2023-07-08T15:19:50;32.60;33.90
1347;DHT22;667;48.796;9.480;2023-07-08T15:22:16;32.60;33.80
1347;DHT22;667;48.796;9.480;2023-07-08T15:24:41;32.60;33.80
1347;DHT22;667;48.796;9.480;2023-07-08T15:27:11;32.60;33.70
1347;DHT22;667;48.796;9.480;2023-07-08T15:29:37;32.60;34.00
1347;DHT22;667;48.796;9.480;2023-07-08T15:32:03;32.60;34.20
1347;DHT22;667;48.796;9.480;2023-07-08T15:34:29;32.60;33.70
1347;DHT22;667;48.796;9.480;2023-07-08T15:36:55;32.60;33.30
1347;DHT22;667;48.796;9.480;2023-07-08T15:39:20;32.60;33.50
1347;DHT22;667;48.796;9.480;2023-07-08T15:41:48;32.60;33.90
1347;DHT22;667;48.796;9.480;2023-07-08T15:44:14;32.60;33.90
1347;DHT22;667;48.796;9.480;2023-07-08T15:46:43;32.50;34.30
1347;DHT22;667;48.796;9.480;2023-07-08T15:49:23;32.50;34.40
1347;DHT22;667;48.796;9.480;2023-07-08T15:51:50;32.50;34.50
1347;DHT22;667;48.796;9.480;2023-07-08T15:54:17;32.50;34.90
1347;DHT22;667;48.796;9.480;2023-07-08T15:56:43;32.50;34.80
1347;DHT22;667;48.796;9.480;2023-07-08T15:59:12;32.50;34.60
1347;DHT22;667;48.796;9.480;2023-07-08T16:01:39;32.50;34.50
1347;DHT22;667;48.796;9.480;2023-07-08T16:04:07;32.50;34.30
1347;DHT22;667;48.796;9.480;2023-07-08T16:06:36;32.40;34.30
1347;DHT22;667;48.796;9.480;2023-07-08T16:09:02;32.40;34.40
1347;DHT22;667;48.796;9.480;2023-07-08T16:11:30;32.30;34.60
1347;DHT22;667;48.796;9.480;2023-07-08T16:13:57;32.30;34.90
1347;DHT22;667;48.796;9.480;2023-07-08T16:16:23;32.30;34.70
1347;DHT22;667;48.796;9.480;2023-07-08T16:18:50;32.30;34.30
1347;DHT22;667;48.796;9.480;2023-07-08T16:21:16;32.30;35.00
1347;DHT22;667;48.796;9.480;2023-07-08T16:23:42;32.30;34.40
1347;DHT22;667;48.796;9.480;2023-07-08T16:26:10;32.30;34.60
1347;DHT22;667;48.796;9.480;2023-07-08T16:28:45;32.30;34.60
1347;DHT22;667;48.796;9.480;2023-07-08T16:31:13;32.30;34.30
1347;DHT22;667;48.796;9.480;2023-07-08T16:33:39;32.30;34.70
1347;DHT22;667;48.796;9.480;2023-07-08T16:36:05;32.30;34.40
1347;DHT22;667;48.796;9.480;2023-07-08T16:38:34;32.20;34.30
1347;DHT22;667;48.796;9.480;2023-07-08T16:41:00;32.20;34.60
1347;DHT22;667;48.796;9.480;2023-07-08T16:43:29;32.10;34.90
1347;DHT22;667;48.796;9.480;2023-07-08T16:45:56;32.10;35.20
1347;DHT22;667;48.796;9.480;2023-07-08T16:48:22;32.10;35.00
1347;DHT22;667;48.796;9.480;2023-07-08T16:50:48;32.10;35.30
1347;DHT22;667;48.796;9.480;2023-07-08T16:53:13;32.10;35.60
1347;DHT22;667;48.796;9.480;2023-07-08T16:55:39;32.10;35.60
1347;DHT22;667;48.796;9.480;2023-07-08T16:58:07;32.10;35.50
1347;DHT22;667;48.796;9.480;2023-07-08T17:00:33;32.00;35.50
1347;DHT22;667;48.796;9.480;2023-07-08T17:02:59;32.00;35.60
1347;DHT22;667;48.796;9.480;2023-07-08T17:05:33;32.00;35.50
1347;DHT22;667;48.796;9.480;2023-07-08T17:08:00;31.90;35.80
1347;DHT22;667;48.796;9.480;2023-07-08T17:10:26;31.90;36.10
1347;DHT22;667;48.796;9.480;2023-07-08T17:12:52;31.90;35.90
1347;DHT22;667;48.796;9.480;2023-07-08T17:15:19;31.90;35.90
1347;DHT22;667;48.796;9.480;2023-07-08T17:17:52;31.90;36.00
1347;DHT22;667;48.796;9.480;2023-07-08T17:22:45;31.90;36.10
1347;DHT22;667;48.796;9.480;2023-07-08T17:25:24;31.80;36.00
1347;DHT22;667;48.796;9.480;2023-07-08T17:27:54;31.80;36.20
1347;DHT22;667;48.796;9.480;2023-07-08T17:30:21;31.70;36.40
1347;DHT22;667;48.796;9.480;2023-07-08T17:32:49;31.70;36.40
1347;DHT22;667;48.796;9.480;2023-07-08T17:35:17;31.70;36.50